sensor_id;sensor_type;location;lat;lon;timestamp;P1;durP1;ratioP1;P2;durP2;ratioP2
12088;SDS011;6107;49.078;8.578;2023-03-31T00:00:42;5.07;;;1.67;;
12088;SDS011;6107;49.078;8.578;2023-03-31T00:03:08;5.67;;;1.70;;
12088;SDS011;6107;49.078;8.578;2023-03-31T00:05:46;7.23;;;1.93;;
12088;SDS011;6107;49.078;8.578;2023-03-31T00:08:12;8.27;;;2.20;;
12088;SDS011;6107;49.078;8.578;2023-03-31T00:10:42;5.77;;;1.70;;
12088;SDS011;6107;49.078;8.578;2023-03-31T00:13:10;5.53;;;2.00;;
12088;SDS011;6107;49.078;8.578;2023-03-31T00:15:36;8.10;;;2.10;;
12088;SDS011;6107;49.078;8.578;2023-03-31T00:18:01;8.50;;;1.80;;
12088;SDS011;6107;49.078;8.578;2023-03-31T00:20:28;5.40;;;1.80;;
12088;SDS011;6107;49.078;8.578;2023-03-31T00:22:53;7.80;;;2.00;;
12088;SDS011;6107;49.078;8.578;2023-03-31T00:25:21;8.83;;;1.70;;
12088;SDS011;6107;49.078;8.578;2023-03-31T00:27:47;4.00;;;1.50;;
12088;SDS011;6107;49.078;8.578;2023-03-31T00:30:14;9.20;;;1.87;;
12088;SDS011;6107;49.078;8.578;2023-03-31T00:32:40;10.20;;;2.13;;
12088;SDS011;6107;49.078;8.578;2023-03-31T00:35:06;7.30;;;1.87;;
12088;SDS011;6107;49.078;8.578;2023-03-31T00:37:33;4.90;;;1.43;;
12088;SDS011;6107;49.078;8.578;2023-03-31T00:39:59;9.33;;;1.80;;
12088;SDS011;6107;49.078;8.578;2023-03-31T00:42:25;5.53;;;1.77;;
12088;SDS011;6107;49.078;8.578;2023-03-31T00:47:39;3.97;;;1.70;;
12088;SDS011;6107;49.078;8.578;2023-03-31T00:50:09;7.17;;;1.83;;
12088;SDS011;6107;49.078;8.578;2023-03-31T00:52:42;4.57;;;1.90;;
12088;SDS011;6107;49.078;8.578;2023-03-31T00:55:14;4.87;;;1.70;;
12088;SDS011;6107;49.078;8.578;2023-03-31T00:57:42;4.50;;;1.80;;
12088;SDS011;6107;49.078;8.578;2023-03-31T01:00:11;7.57;;;2.13;;
12088;SDS011;6107;49.078;8.578;2023-03-31T01:02:39;3.90;;;1.63;;
12088;SDS011;6107;49.078;8.578;2023-03-31T01:05:10;6.67;;;1.83;;
12088;SDS011;6107;49.078;8.578;2023-03-31T01:07:43;8.67;;;1.60;;
12088;SDS011;6107;49.078;8.578;2023-03-31T01:10:12;5.93;;;1.57;;
12088;SDS011;6107;49.078;8.578;2023-03-31T01:12:39;5.83;;;1.63;;
12088;SDS011;6107;49.078;8.578;2023-03-31T01:15:07;9.17;;;1.57;;
12088;SDS011;6107;49.078;8.578;2023-03-31T01:17:33;6.30;;;1.77;;
12088;SDS011;6107;49.078;8.578;2023-03-31T01:23:16;3.23;;;1.27;;
12088;SDS011;6107;49.078;8.578;2023-03-31T01:26:05;5.93;;;1.60;;
12088;SDS011;6107;49.078;8.578;2023-03-31T01:34:05;8.70;;;2.17;;
12088;SDS011;6107;49.078;8.578;2023-03-31T01:42:00;2.97;;;0.97;;
12088;SDS011;6107;49.078;8.578;2023-03-31T01:44:34;4.17;;;1.60;;
12088;SDS011;6107;49.078;8.578;2023-03-31T01:47:23;4.93;;;1.80;;
12088;SDS011;6107;49.078;8.578;2023-03-31T01:50:09;3.93;;;1.30;;
12088;SDS011;6107;49.078;8.578;2023-03-31T01:52:45;6.07;;;1.30;;
12088;SDS011;6107;49.078;8.578;2023-03-31T01:55:35;5.07;;;1.37;;
12088;SDS011;6107;49.078;8.578;2023-03-31T01:58:12;4.10;;;1.43;;
12088;SDS011;6107;49.078;8.578;2023-03-31T02:00:49;7.57;;;1.50;;
12088;SDS011;6107;49.078;8.578;2023-03-31T02:03:27;4.70;;;1.97;;
12088;SDS011;6107;49.078;8.578;2023-03-31T02:05:57;4.93;;;1.13;;
12088;SDS011;6107;49.078;8.578;2023-03-31T02:08:29;4.30;;;1.53;;
12088;SDS011;6107;49.078;8.578;2023-03-31T02:11:00;3.67;;;1.47;;
12088;SDS011;6107;49.078;8.578;2023-03-31T02:13:26;3.13;;;1.50;;
12088;SDS011;6107;49.078;8.578;2023-03-31T02:15:55;6.23;;;1.40;;
12088;SDS011;6107;49.078;8.578;2023-03-31T02:18:29;5.93;;;1.80;;
12088;SDS011;6107;49.078;8.578;2023-03-31T02:20:57;4.13;;;1.40;;
12088;SDS011;6107;49.078;8.578;2023-03-31T02:23:24;5.53;;;1.60;;
12088;SDS011;6107;49.078;8.578;2023-03-31T02:26:03;5.43;;;1.80;;
12088;SDS011;6107;49.078;8.578;2023-03-31T02:28:32;6.40;;;1.80;;
12088;SDS011;6107;49.078;8.578;2023-03-31T02:31:06;4.20;;;1.77;;
12088;SDS011;6107;49.078;8.578;2023-03-31T02:33:38;7.10;;;1.97;;
12088;SDS011;6107;49.078;8.578;2023-03-31T02:36:04;5.13;;;1.80;;
12088;SDS011;6107;49.078;8.578;2023-03-31T02:38:35;5.50;;;2.30;;
12088;SDS011;6107;49.078;8.578;2023-03-31T02:41:07;9.57;;;1.93;;
12088;SDS011;6107;49.078;8.578;2023-03-31T02:43:33;8.50;;;2.23;;
12088;SDS011;6107;49.078;8.578;2023-03-31T02:45:58;7.33;;;1.97;;
12088;SDS011;6107;49.078;8.578;2023-03-31T02:48:25;7.93;;;2.43;;
12088;SDS011;6107;49.078;8.578;2023-03-31T02:51:03;9.43;;;3.20;;
12088;SDS011;6107;49.078;8.578;2023-03-31T02:53:37;5.47;;;2.30;;
12088;SDS011;6107;49.078;8.578;2023-03-31T02:59:11;8.50;;;2.27;;
12088;SDS011;6107;49.078;8.578;2023-03-31T03:02:06;8.53;;;2.27;;
12088;SDS011;6107;49.078;8.578;2023-03-31T03:07:30;6.87;;;2.27;;
12088;SDS011;6107;49.078;8.578;2023-03-31T03:10:06;5.10;;;2.13;;
12088;SDS011;6107;49.078;8.578;2023-03-31T03:13:03;5.47;;;1.87;;
12088;SDS011;6107;49.078;8.578;2023-03-31T03:15:37;4.03;;;1.70;;
12088;SDS011;6107;49.078;8.578;2023-03-31T03:18:16;7.70;;;1.70;;
12088;SDS011;6107;49.078;8.578;2023-03-31T03:20:42;4.23;;;1.80;;
12088;SDS011;6107;49.078;8.578;2023-03-31T03:23:13;7.70;;;1.80;;
12088;SDS011;6107;49.078;8.578;2023-03-31T03:25:39;7.33;;;2.53;;
12088;SDS011;6107;49.078;8.578;2023-03-31T03:28:05;4.53;;;2.20;;
12088;SDS011;6107;49.078;8.578;2023-03-31T03:30:31;6.57;;;2.10;;
12088;SDS011;6107;49.078;8.578;2023-03-31T03:32:56;6.07;;;2.50;;
12088;SDS011;6107;49.078;8.578;2023-03-31T03:35:23;4.17;;;2.07;;
12088;SDS011;6107;49.078;8.578;2023-03-31T03:37:49;5.67;;;1.63;;
12088;SDS011;6107;49.078;8.578;2023-03-31T03:40:15;2.63;;;1.83;;
12088;SDS011;6107;49.078;8.578;2023-03-31T03:42:40;3.67;;;1.70;;
12088;SDS011;6107;49.078;8.578;2023-03-31T03:45:06;3.57;;;1.80;;
12088;SDS011;6107;49.078;8.578;2023-03-31T03:47:32;5.17;;;2.03;;
12088;SDS011;6107;49.078;8.578;2023-03-31T03:49:58;4.63;;;1.97;;
12088;SDS011;6107;49.078;8.578;2023-03-31T03:52:23;3.83;;;2.00;;
12088;SDS011;6107;49.078;8.578;2023-03-31T03:54:49;4.83;;;2.03;;
12088;SDS011;6107;49.078;8.578;2023-03-31T03:57:14;3.63;;;1.83;;
12088;SDS011;6107;49.078;8.578;2023-03-31T03:59:40;6.30;;;2.07;;
12088;SDS011;6107;49.078;8.578;2023-03-31T04:02:06;4.93;;;2.20;;
12088;SDS011;6107;49.078;8.578;2023-03-31T04:04:31;4.90;;;1.87;;
12088;SDS011;6107;49.078;8.578;2023-03-31T04:06:57;6.13;;;2.00;;
12088;SDS011;6107;49.078;8.578;2023-03-31T04:09:22;6.13;;;2.00;;
12088;SDS011;6107;49.078;8.578;2023-03-31T04:11:48;5.37;;;1.90;;
12088;SDS011;6107;49.078;8.578;2023-03-31T04:14:13;6.70;;;1.73;;
12088;SDS011;6107;49.078;8.578;2023-03-31T04:16:38;3.17;;;1.70;;
12088;SDS011;6107;49.078;8.578;2023-03-31T04:19:04;8.10;;;2.60;;
12088;SDS011;6107;49.078;8.578;2023-03-31T04:21:30;6.73;;;2.30;;
12088;SDS011;6107;49.078;8.578;2023-03-31T04:23:58;6.23;;;2.23;;
12088;SDS011;6107;49.078;8.578;2023-03-31T04:26:29;5.63;;;1.93;;
12088;SDS011;6107;49.078;8.578;2023-03-31T04:29:06;6.87;;;2.50;;
12088;SDS011;6107;49.078;8.578;2023-03-31T04:31:33;5.47;;;2.30;;
12088;SDS011;6107;49.078;8.578;2023-03-31T04:34:02;5.67;;;2.20;;
12088;SDS011;6107;49.078;8.578;2023-03-31T04:36:30;4.77;;;2.20;;
12088;SDS011;6107;49.078;8.578;2023-03-31T04:38:57;7.37;;;2.20;;
12088;SDS011;6107;49.078;8.578;2023-03-31T04:41:23;7.13;;;2.53;;
12088;SDS011;6107;49.078;8.578;2023-03-31T04:43:49;8.03;;;2.27;;
12088;SDS011;6107;49.078;8.578;2023-03-31T04:46:15;9.40;;;6.17;;
12088;SDS011;6107;49.078;8.578;2023-03-31T04:48:40;3.60;;;2.23;;
12088;SDS011;6107;49.078;8.578;2023-03-31T04:51:06;6.20;;;2.93;;
12088;SDS011;6107;49.078;8.578;2023-03-31T04:53:33;6.43;;;2.20;;
12088;SDS011;6107;49.078;8.578;2023-03-31T04:55:58;5.43;;;2.30;;
12088;SDS011;6107;49.078;8.578;2023-03-31T04:58:24;6.87;;;2.43;;
12088;SDS011;6107;49.078;8.578;2023-03-31T05:00:50;6.97;;;2.50;;
12088;SDS011;6107;49.078;8.578;2023-03-31T05:03:16;5.77;;;2.57;;
12088;SDS011;6107;49.078;8.578;2023-03-31T05:05:42;5.93;;;2.23;;
12088;SDS011;6107;49.078;8.578;2023-03-31T05:08:07;6.10;;;2.20;;
12088;SDS011;6107;49.078;8.578;2023-03-31T05:10:33;7.83;;;3.20;;
12088;SDS011;6107;49.078;8.578;2023-03-31T05:12:58;4.67;;;2.30;;
12088;SDS011;6107;49.078;8.578;2023-03-31T05:15:24;4.20;;;2.40;;
12088;SDS011;6107;49.078;8.578;2023-03-31T05:17:49;7.20;;;2.33;;
12088;SDS011;6107;49.078;8.578;2023-03-31T05:20:16;9.80;;;3.10;;
12088;SDS011;6107;49.078;8.578;2023-03-31T05:22:43;6.20;;;2.87;;
12088;SDS011;6107;49.078;8.578;2023-03-31T05:25:09;6.50;;;2.90;;
12088;SDS011;6107;49.078;8.578;2023-03-31T05:27:38;8.77;;;3.00;;
12088;SDS011;6107;49.078;8.578;2023-03-31T05:30:04;6.33;;;3.10;;
12088;SDS011;6107;49.078;8.578;2023-03-31T05:32:30;4.50;;;2.70;;
12088;SDS011;6107;49.078;8.578;2023-03-31T05:34:55;11.20;;;3.40;;
12088;SDS011;6107;49.078;8.578;2023-03-31T05:37:22;8.33;;;3.10;;
12088;SDS011;6107;49.078;8.578;2023-03-31T05:39:48;8.20;;;3.47;;
12088;SDS011;6107;49.078;8.578;2023-03-31T05:42:14;8.17;;;3.77;;
12088;SDS011;6107;49.078;8.578;2023-03-31T05:44:39;5.87;;;3.60;;
12088;SDS011;6107;49.078;8.578;2023-03-31T05:47:05;4.33;;;3.10;;
12088;SDS011;6107;49.078;8.578;2023-03-31T05:49:30;8.07;;;2.97;;
12088;SDS011;6107;49.078;8.578;2023-03-31T05:51:56;8.03;;;3.37;;
12088;SDS011;6107;49.078;8.578;2023-03-31T05:54:22;5.70;;;3.40;;
12088;SDS011;6107;49.078;8.578;2023-03-31T05:56:47;8.63;;;3.60;;
12088;SDS011;6107;49.078;8.578;2023-03-31T05:59:13;9.97;;;4.50;;
12088;SDS011;6107;49.078;8.578;2023-03-31T06:01:38;8.40;;;4.03;;
12088;SDS011;6107;49.078;8.578;2023-03-31T06:04:04;8.27;;;4.60;;
12088;SDS011;6107;49.078;8.578;2023-03-31T06:06:30;8.03;;;4.20;;
12088;SDS011;6107;49.078;8.578;2023-03-31T06:08:57;12.50;;;4.87;;
12088;SDS011;6107;49.078;8.578;2023-03-31T06:11:22;10.10;;;5.30;;
12088;SDS011;6107;49.078;8.578;2023-03-31T06:13:48;9.37;;;5.07;;
12088;SDS011;6107;49.078;8.578;2023-03-31T06:16:14;9.57;;;5.90;;
12088;SDS011;6107;49.078;8.578;2023-03-31T06:18:41;10.03;;;6.10;;
12088;SDS011;6107;49.078;8.578;2023-03-31T06:21:07;13.47;;;5.07;;
12088;SDS011;6107;49.078;8.578;2023-03-31T06:23:36;12.93;;;5.07;;
12088;SDS011;6107;49.078;8.578;2023-03-31T06:26:03;8.77;;;5.67;;
12088;SDS011;6107;49.078;8.578;2023-03-31T06:28:32;6.87;;;5.13;;
12088;SDS011;6107;49.078;8.578;2023-03-31T06:30:59;10.20;;;4.70;;
12088;SDS011;6107;49.078;8.578;2023-03-31T06:33:25;8.90;;;4.77;;
12088;SDS011;6107;49.078;8.578;2023-03-31T06:35:50;9.93;;;4.23;;
12088;SDS011;6107;49.078;8.578;2023-03-31T06:38:20;7.97;;;3.90;;
12088;SDS011;6107;49.078;8.578;2023-03-31T06:40:45;7.17;;;3.70;;
12088;SDS011;6107;49.078;8.578;2023-03-31T06:43:11;8.57;;;4.00;;
12088;SDS011;6107;49.078;8.578;2023-03-31T06:45:36;11.17;;;4.07;;
12088;SDS011;6107;49.078;8.578;2023-03-31T06:48:02;11.73;;;6.57;;
12088;SDS011;6107;49.078;8.578;2023-03-31T06:50:27;5.80;;;3.23;;
12088;SDS011;6107;49.078;8.578;2023-03-31T06:52:53;6.60;;;3.00;;
12088;SDS011;6107;49.078;8.578;2023-03-31T06:55:19;8.00;;;3.67;;
12088;SDS011;6107;49.078;8.578;2023-03-31T06:57:44;6.43;;;3.53;;
12088;SDS011;6107;49.078;8.578;2023-03-31T07:00:10;7.83;;;3.50;;
12088;SDS011;6107;49.078;8.578;2023-03-31T07:02:36;6.33;;;3.30;;
12088;SDS011;6107;49.078;8.578;2023-03-31T07:05:02;6.00;;;3.80;;
12088;SDS011;6107;49.078;8.578;2023-03-31T07:07:30;6.57;;;3.30;;
12088;SDS011;6107;49.078;8.578;2023-03-31T07:09:56;6.93;;;3.30;;
12088;SDS011;6107;49.078;8.578;2023-03-31T07:12:22;6.07;;;2.83;;
12088;SDS011;6107;49.078;8.578;2023-03-31T07:14:47;6.47;;;2.83;;
12088;SDS011;6107;49.078;8.578;2023-03-31T07:17:13;6.20;;;3.30;;
12088;SDS011;6107;49.078;8.578;2023-03-31T07:19:38;6.97;;;2.40;;
12088;SDS011;6107;49.078;8.578;2023-03-31T07:22:06;4.70;;;2.30;;
12088;SDS011;6107;49.078;8.578;2023-03-31T07:24:32;3.97;;;2.20;;
12088;SDS011;6107;49.078;8.578;2023-03-31T07:26:57;4.87;;;2.00;;
12088;SDS011;6107;49.078;8.578;2023-03-31T07:29:23;4.50;;;2.20;;
12088;SDS011;6107;49.078;8.578;2023-03-31T07:31:49;3.70;;;2.03;;
12088;SDS011;6107;49.078;8.578;2023-03-31T07:34:15;3.60;;;2.17;;
12088;SDS011;6107;49.078;8.578;2023-03-31T07:36:41;5.93;;;2.10;;
12088;SDS011;6107;49.078;8.578;2023-03-31T07:39:06;4.77;;;2.20;;
12088;SDS011;6107;49.078;8.578;2023-03-31T07:41:32;2.50;;;1.60;;
12088;SDS011;6107;49.078;8.578;2023-03-31T07:43:57;4.07;;;2.07;;
12088;SDS011;6107;49.078;8.578;2023-03-31T07:46:24;3.20;;;1.80;;
12088;SDS011;6107;49.078;8.578;2023-03-31T07:48:52;4.57;;;1.80;;
12088;SDS011;6107;49.078;8.578;2023-03-31T07:51:19;3.27;;;1.77;;
12088;SDS011;6107;49.078;8.578;2023-03-31T07:53:46;2.57;;;1.50;;
12088;SDS011;6107;49.078;8.578;2023-03-31T07:56:13;2.93;;;1.53;;
12088;SDS011;6107;49.078;8.578;2023-03-31T07:58:41;4.00;;;1.67;;
12088;SDS011;6107;49.078;8.578;2023-03-31T08:01:07;3.17;;;1.60;;
12088;SDS011;6107;49.078;8.578;2023-03-31T08:03:32;2.27;;;1.43;;
12088;SDS011;6107;49.078;8.578;2023-03-31T08:05:58;3.47;;;1.90;;
12088;SDS011;6107;49.078;8.578;2023-03-31T08:08:24;3.47;;;1.60;;
12088;SDS011;6107;49.078;8.578;2023-03-31T08:10:50;4.53;;;1.57;;
12088;SDS011;6107;49.078;8.578;2023-03-31T08:13:16;4.63;;;1.60;;
12088;SDS011;6107;49.078;8.578;2023-03-31T08:15:42;3.67;;;1.60;;
12088;SDS011;6107;49.078;8.578;2023-03-31T08:18:07;4.07;;;1.60;;
12088;SDS011;6107;49.078;8.578;2023-03-31T08:20:33;2.87;;;1.60;;
12088;SDS011;6107;49.078;8.578;2023-03-31T08:22:58;2.17;;;1.47;;
12088;SDS011;6107;49.078;8.578;2023-03-31T08:25:24;3.40;;;1.40;;
12088;SDS011;6107;49.078;8.578;2023-03-31T08:27:50;3.37;;;1.57;;
12088;SDS011;6107;49.078;8.578;2023-03-31T08:30:16;2.77;;;1.53;;
12088;SDS011;6107;49.078;8.578;2023-03-31T08:32:42;4.70;;;1.67;;
12088;SDS011;6107;49.078;8.578;2023-03-31T08:35:08;4.20;;;1.77;;
12088;SDS011;6107;49.078;8.578;2023-03-31T08:37:35;4.43;;;1.80;;
12088;SDS011;6107;49.078;8.578;2023-03-31T08:40:02;3.77;;;1.60;;
12088;SDS011;6107;49.078;8.578;2023-03-31T08:45:18;3.43;;;1.40;;
12088;SDS011;6107;49.078;8.578;2023-03-31T08:47:45;5.00;;;1.40;;
12088;SDS011;6107;49.078;8.578;2023-03-31T08:50:16;3.00;;;1.20;;
12088;SDS011;6107;49.078;8.578;2023-03-31T08:52:54;4.73;;;1.50;;
12088;SDS011;6107;49.078;8.578;2023-03-31T08:55:29;4.57;;;1.83;;
12088;SDS011;6107;49.078;8.578;2023-03-31T08:58:17;4.20;;;1.40;;
12088;SDS011;6107;49.078;8.578;2023-03-31T09:00:51;2.90;;;1.37;;
12088;SDS011;6107;49.078;8.578;2023-03-31T09:06:23;5.73;;;1.67;;
12088;SDS011;6107;49.078;8.578;2023-03-31T09:08:58;2.07;;;1.30;;
12088;SDS011;6107;49.078;8.578;2023-03-31T09:11:31;2.33;;;1.30;;
12088;SDS011;6107;49.078;8.578;2023-03-31T09:14:05;4.70;;;1.37;;
12088;SDS011;6107;49.078;8.578;2023-03-31T09:16:53;3.97;;;1.70;;
12088;SDS011;6107;49.078;8.578;2023-03-31T09:19:43;5.97;;;1.83;;
12088;SDS011;6107;49.078;8.578;2023-03-31T09:22:19;4.60;;;1.50;;
12088;SDS011;6107;49.078;8.578;2023-03-31T09:24:53;3.57;;;1.30;;
12088;SDS011;6107;49.078;8.578;2023-03-31T09:27:25;4.03;;;1.50;;
12088;SDS011;6107;49.078;8.578;2023-03-31T09:29:57;4.33;;;1.60;;
12088;SDS011;6107;49.078;8.578;2023-03-31T09:32:48;3.40;;;1.57;;
12088;SDS011;6107;49.078;8.578;2023-03-31T09:35:33;4.43;;;1.27;;
12088;SDS011;6107;49.078;8.578;2023-03-31T09:37:59;5.18;;;1.48;;
12088;SDS011;6107;49.078;8.578;2023-03-31T09:40:26;6.23;;;1.70;;
12088;SDS011;6107;49.078;8.578;2023-03-31T09:42:57;7.03;;;1.73;;
12088;SDS011;6107;49.078;8.578;2023-03-31T09:45:28;7.20;;;1.70;;
12088;SDS011;6107;49.078;8.578;2023-03-31T09:47:56;5.73;;;1.70;;
12088;SDS011;6107;49.078;8.578;2023-03-31T09:50:24;5.40;;;1.60;;
12088;SDS011;6107;49.078;8.578;2023-03-31T09:52:53;3.10;;;1.40;;
12088;SDS011;6107;49.078;8.578;2023-03-31T09:57:54;11.25;;;1.88;;
12088;SDS011;6107;49.078;8.578;2023-03-31T10:00:20;5.28;;;1.73;;
12088;SDS011;6107;49.078;8.578;2023-03-31T10:02:48;5.45;;;1.83;;
12088;SDS011;6107;49.078;8.578;2023-03-31T10:05:24;7.63;;;1.60;;
12088;SDS011;6107;49.078;8.578;2023-03-31T10:07:51;7.05;;;1.70;;
12088;SDS011;6107;49.078;8.578;2023-03-31T10:10:33;6.70;;;2.10;;
12088;SDS011;6107;49.078;8.578;2023-03-31T10:13:00;5.22;;;1.65;;
12088;SDS011;6107;49.078;8.578;2023-03-31T10:15:33;8.45;;;1.90;;
12088;SDS011;6107;49.078;8.578;2023-03-31T10:18:02;7.07;;;1.83;;
12088;SDS011;6107;49.078;8.578;2023-03-31T10:23:05;5.57;;;1.80;;
12088;SDS011;6107;49.078;8.578;2023-03-31T10:25:41;6.40;;;2.00;;
12088;SDS011;6107;49.078;8.578;2023-03-31T10:28:09;6.40;;;1.80;;
12088;SDS011;6107;49.078;8.578;2023-03-31T10:30:39;6.32;;;1.55;;
12088;SDS011;6107;49.078;8.578;2023-03-31T10:33:10;10.27;;;1.98;;
12088;SDS011;6107;49.078;8.578;2023-03-31T10:35:41;7.25;;;1.80;;
12088;SDS011;6107;49.078;8.578;2023-03-31T10:38:11;4.47;;;1.50;;
12088;SDS011;6107;49.078;8.578;2023-03-31T10:40:40;6.43;;;1.60;;
12088;SDS011;6107;49.078;8.578;2023-03-31T10:43:19;6.38;;;1.60;;
12088;SDS011;6107;49.078;8.578;2023-03-31T10:45:50;6.45;;;1.42;;
12088;SDS011;6107;49.078;8.578;2023-03-31T10:48:24;6.55;;;1.60;;
12088;SDS011;6107;49.078;8.578;2023-03-31T10:50:51;7.32;;;1.50;;
12088;SDS011;6107;49.078;8.578;2023-03-31T10:53:17;6.03;;;1.83;;
12088;SDS011;6107;49.078;8.578;2023-03-31T10:55:52;9.15;;;1.90;;
12088;SDS011;6107;49.078;8.578;2023-03-31T11:10:02;3.63;;;0.90;;
12088;SDS011;6107;49.078;8.578;2023-03-31T11:12:39;2.90;;;1.13;;
12088;SDS011;6107;49.078;8.578;2023-03-31T11:20:59;1.23;;;0.60;;
12088;SDS011;6107;49.078;8.578;2023-03-31T11:23:40;1.60;;;0.50;;
12088;SDS011;6107;49.078;8.578;2023-03-31T11:26:40;1.73;;;0.60;;
12088;SDS011;6107;49.078;8.578;2023-03-31T11:32:14;3.30;;;0.70;;
12088;SDS011;6107;49.078;8.578;2023-03-31T11:34:59;2.03;;;0.73;;
12088;SDS011;6107;49.078;8.578;2023-03-31T11:43:09;3.97;;;0.90;;
12088;SDS011;6107;49.078;8.578;2023-03-31T11:45:45;4.70;;;1.20;;
12088;SDS011;6107;49.078;8.578;2023-03-31T11:48:21;3.60;;;0.60;;
12088;SDS011;6107;49.078;8.578;2023-03-31T11:50:57;1.27;;;0.60;;
12088;SDS011;6107;49.078;8.578;2023-03-31T11:53:26;1.17;;;0.60;;
12088;SDS011;6107;49.078;8.578;2023-03-31T11:56:02;2.30;;;0.77;;
12088;SDS011;6107;49.078;8.578;2023-03-31T11:58:32;2.63;;;0.90;;
12088;SDS011;6107;49.078;8.578;2023-03-31T12:06:20;2.90;;;0.87;;
12088;SDS011;6107;49.078;8.578;2023-03-31T12:11:40;1.97;;;0.93;;
12088;SDS011;6107;49.078;8.578;2023-03-31T12:17:01;6.83;;;1.57;;
12088;SDS011;6107;49.078;8.578;2023-03-31T12:22:23;2.27;;;0.90;;
12088;SDS011;6107;49.078;8.578;2023-03-31T12:24:52;2.83;;;0.80;;
12088;SDS011;6107;49.078;8.578;2023-03-31T12:27:23;2.03;;;0.70;;
12088;SDS011;6107;49.078;8.578;2023-03-31T12:30:05;2.17;;;0.60;;
12088;SDS011;6107;49.078;8.578;2023-03-31T12:32:52;1.67;;;0.77;;
12088;SDS011;6107;49.078;8.578;2023-03-31T12:35:22;2.20;;;0.87;;
12088;SDS011;6107;49.078;8.578;2023-03-31T12:40:47;2.53;;;0.60;;
12088;SDS011;6107;49.078;8.578;2023-03-31T12:43:40;5.27;;;0.87;;
12088;SDS011;6107;49.078;8.578;2023-03-31T12:52:05;3.57;;;0.90;;
12088;SDS011;6107;49.078;8.578;2023-03-31T12:57:30;2.63;;;0.83;;
12088;SDS011;6107;49.078;8.578;2023-03-31T13:02:37;1.47;;;0.70;;
12088;SDS011;6107;49.078;8.578;2023-03-31T13:08:05;1.50;;;0.93;;
12088;SDS011;6107;49.078;8.578;2023-03-31T13:10:32;3.77;;;0.80;;
12088;SDS011;6107;49.078;8.578;2023-03-31T13:13:18;2.63;;;0.80;;
12088;SDS011;6107;49.078;8.578;2023-03-31T13:15:54;2.23;;;0.83;;
12088;SDS011;6107;49.078;8.578;2023-03-31T13:18:21;2.73;;;0.90;;
12088;SDS011;6107;49.078;8.578;2023-03-31T13:20:57;2.13;;;0.60;;
12088;SDS011;6107;49.078;8.578;2023-03-31T13:23:25;3.10;;;0.73;;
12088;SDS011;6107;49.078;8.578;2023-03-31T13:25:56;3.67;;;1.00;;
12088;SDS011;6107;49.078;8.578;2023-03-31T13:31:17;1.67;;;0.77;;
12088;SDS011;6107;49.078;8.578;2023-03-31T13:33:44;2.87;;;0.80;;
12088;SDS011;6107;49.078;8.578;2023-03-31T13:38:51;3.07;;;0.90;;
12088;SDS011;6107;49.078;8.578;2023-03-31T13:44:38;3.50;;;1.00;;
12088;SDS011;6107;49.078;8.578;2023-03-31T13:52:24;2.07;;;0.90;;
12088;SDS011;6107;49.078;8.578;2023-03-31T13:57:34;5.47;;;1.23;;
12088;SDS011;6107;49.078;8.578;2023-03-31T14:00:13;2.87;;;1.10;;
12088;SDS011;6107;49.078;8.578;2023-03-31T14:08:44;4.97;;;1.23;;
12088;SDS011;6107;49.078;8.578;2023-03-31T14:13:57;2.88;;;1.02;;
12088;SDS011;6107;49.078;8.578;2023-03-31T14:16:27;3.90;;;1.20;;
12088;SDS011;6107;49.078;8.578;2023-03-31T14:18:58;3.67;;;1.17;;
12088;SDS011;6107;49.078;8.578;2023-03-31T14:21:38;4.90;;;0.83;;
12088;SDS011;6107;49.078;8.578;2023-03-31T14:30:05;2.27;;;0.70;;
12088;SDS011;6107;49.078;8.578;2023-03-31T14:35:34;4.60;;;1.13;;
12088;SDS011;6107;49.078;8.578;2023-03-31T14:38:16;2.57;;;0.80;;
12088;SDS011;6107;49.078;8.578;2023-03-31T14:40:51;3.20;;;0.93;;
12088;SDS011;6107;49.078;8.578;2023-03-31T14:43:20;2.30;;;0.80;;
12088;SDS011;6107;49.078;8.578;2023-03-31T14:48:26;2.67;;;0.80;;
12088;SDS011;6107;49.078;8.578;2023-03-31T14:50:55;3.17;;;0.90;;
12088;SDS011;6107;49.078;8.578;2023-03-31T14:53:23;3.07;;;0.77;;
12088;SDS011;6107;49.078;8.578;2023-03-31T14:55:50;2.83;;;0.77;;
12088;SDS011;6107;49.078;8.578;2023-03-31T14:58:34;2.93;;;0.80;;
12088;SDS011;6107;49.078;8.578;2023-03-31T15:01:07;2.17;;;0.67;;
12088;SDS011;6107;49.078;8.578;2023-03-31T15:03:38;1.63;;;0.93;;
12088;SDS011;6107;49.078;8.578;2023-03-31T15:06:05;4.30;;;1.10;;
12088;SDS011;6107;49.078;8.578;2023-03-31T15:08:32;1.40;;;0.70;;
12088;SDS011;6107;49.078;8.578;2023-03-31T15:10:59;2.57;;;0.90;;
12088;SDS011;6107;49.078;8.578;2023-03-31T15:13:39;2.77;;;0.80;;
12088;SDS011;6107;49.078;8.578;2023-03-31T15:18:55;1.67;;;0.80;;
12088;SDS011;6107;49.078;8.578;2023-03-31T15:21:24;1.40;;;0.90;;
12088;SDS011;6107;49.078;8.578;2023-03-31T15:23:51;2.57;;;0.90;;
12088;SDS011;6107;49.078;8.578;2023-03-31T15:26:23;2.57;;;0.90;;
12088;SDS011;6107;49.078;8.578;2023-03-31T15:28:56;3.13;;;0.90;;
12088;SDS011;6107;49.078;8.578;2023-03-31T15:31:26;4.27;;;1.27;;
12088;SDS011;6107;49.078;8.578;2023-03-31T15:33:51;3.80;;;1.27;;
12088;SDS011;6107;49.078;8.578;2023-03-31T15:36:17;2.90;;;0.87;;
12088;SDS011;6107;49.078;8.578;2023-03-31T15:38:45;2.90;;;1.23;;
12088;SDS011;6107;49.078;8.578;2023-03-31T15:41:12;4.87;;;1.00;;
12088;SDS011;6107;49.078;8.578;2023-03-31T15:43:46;4.40;;;1.43;;
12088;SDS011;6107;49.078;8.578;2023-03-31T15:46:57;2.47;;;0.80;;
12088;SDS011;6107;49.078;8.578;2023-03-31T15:49:03;4.40;;;1.00;;
12088;SDS011;6107;49.078;8.578;2023-03-31T15:51:42;3.03;;;1.00;;
12088;SDS011;6107;49.078;8.578;2023-03-31T15:57:04;2.13;;;1.20;;
12088;SDS011;6107;49.078;8.578;2023-03-31T15:59:44;2.40;;;0.90;;
12088;SDS011;6107;49.078;8.578;2023-03-31T16:02:18;2.43;;;1.40;;
12088;SDS011;6107;49.078;8.578;2023-03-31T16:04:47;3.30;;;1.10;;
12088;SDS011;6107;49.078;8.578;2023-03-31T16:07:24;2.20;;;0.93;;
12088;SDS011;6107;49.078;8.578;2023-03-31T16:15:04;2.20;;;0.83;;
12088;SDS011;6107;49.078;8.578;2023-03-31T16:17:44;3.57;;;1.50;;
12088;SDS011;6107;49.078;8.578;2023-03-31T16:20:27;2.53;;;1.00;;
12088;SDS011;6107;49.078;8.578;2023-03-31T16:22:57;1.57;;;0.73;;
12088;SDS011;6107;49.078;8.578;2023-03-31T16:25:24;2.40;;;1.10;;
12088;SDS011;6107;49.078;8.578;2023-03-31T16:27:54;2.33;;;0.90;;
12088;SDS011;6107;49.078;8.578;2023-03-31T16:30:31;3.17;;;0.87;;
12088;SDS011;6107;49.078;8.578;2023-03-31T16:33:08;2.90;;;0.60;;
12088;SDS011;6107;49.078;8.578;2023-03-31T16:38:04;1.77;;;0.70;;
12088;SDS011;6107;49.078;8.578;2023-03-31T16:40:33;1.80;;;1.23;;
12088;SDS011;6107;49.078;8.578;2023-03-31T16:43:08;2.43;;;0.97;;
12088;SDS011;6107;49.078;8.578;2023-03-31T16:45:36;2.73;;;2.10;;
12088;SDS011;6107;49.078;8.578;2023-03-31T16:48:02;3.70;;;3.40;;
12088;SDS011;6107;49.078;8.578;2023-03-31T16:50:27;2.30;;;1.57;;
12088;SDS011;6107;49.078;8.578;2023-03-31T16:52:53;2.90;;;0.97;;
12088;SDS011;6107;49.078;8.578;2023-03-31T16:55:19;10.50;;;6.07;;
12088;SDS011;6107;49.078;8.578;2023-03-31T16:57:44;2.00;;;0.90;;
12088;SDS011;6107;49.078;8.578;2023-03-31T17:00:10;20.27;;;13.13;;
12088;SDS011;6107;49.078;8.578;2023-03-31T17:02:36;2.43;;;1.50;;
12088;SDS011;6107;49.078;8.578;2023-03-31T17:05:02;2.63;;;1.00;;
12088;SDS011;6107;49.078;8.578;2023-03-31T17:07:28;2.43;;;0.87;;
12088;SDS011;6107;49.078;8.578;2023-03-31T17:09:54;2.70;;;1.00;;
12088;SDS011;6107;49.078;8.578;2023-03-31T17:12:19;2.77;;;0.90;;
12088;SDS011;6107;49.078;8.578;2023-03-31T17:14:45;1.80;;;0.90;;
12088;SDS011;6107;49.078;8.578;2023-03-31T17:17:11;1.93;;;0.83;;
12088;SDS011;6107;49.078;8.578;2023-03-31T17:19:36;3.67;;;1.07;;
12088;SDS011;6107;49.078;8.578;2023-03-31T17:22:02;2.00;;;0.80;;
12088;SDS011;6107;49.078;8.578;2023-03-31T17:24:27;5.83;;;1.10;;
12088;SDS011;6107;49.078;8.578;2023-03-31T17:26:53;3.00;;;0.90;;
12088;SDS011;6107;49.078;8.578;2023-03-31T17:29:19;2.50;;;0.70;;
12088;SDS011;6107;49.078;8.578;2023-03-31T17:31:44;2.77;;;1.00;;
12088;SDS011;6107;49.078;8.578;2023-03-31T17:34:09;2.07;;;0.80;;
12088;SDS011;6107;49.078;8.578;2023-03-31T17:36:35;2.20;;;1.27;;